createdAt,value
2022-09-18T11:45:16.031Z,12.21
2022-09-18T11:48:16.153Z,12.19
2022-09-18T11:51:03.065Z,12.14
2022-09-18T11:53:55.714Z,12.11
2022-09-18T11:56:49.049Z,12.12
2022-09-18T11:59:43.267Z,12.17
2022-09-18T12:02:58.762Z,12.27
2022-09-18T12:05:52.826Z,12.37
2022-09-18T12:09:01.951Z,12.44
2022-09-18T12:12:11.281Z,12.51
2022-09-18T12:15:15.591Z,12.60
2022-09-18T12:18:08.750Z,12.64
2022-09-18T12:20:57.195Z,12.67
2022-09-18T12:23:39.088Z,12.73
2022-09-18T12:26:40.446Z,12.82
2022-09-18T12:29:41.749Z,13.00
2022-09-18T12:32:26.445Z,13.28
2022-09-18T12:35:36.447Z,13.47
2022-09-18T12:38:57.284Z,13.60
2022-09-18T12:41:58.200Z,13.66
2022-09-18T12:44:56.988Z,13.69
2022-09-18T12:48:02.338Z,13.73
2022-09-18T12:51:01.225Z,13.78
2022-09-18T12:53:52.978Z,13.78
2022-09-18T12:57:07.916Z,13.78
2022-09-18T13:00:14.283Z,13.76
2022-09-18T13:03:18.260Z,13.78
2022-09-18T13:06:12.169Z,13.84
2022-09-18T13:09:01.676Z,13.96
2022-09-18T13:11:50.395Z,14.13
2022-09-18T13:14:32.083Z,14.22
2022-09-18T13:17:21.091Z,14.29
2022-09-18T13:20:34.490Z,14.30
2022-09-18T13:23:23.112Z,14.29
2022-09-18T13:26:07.917Z,14.28
2022-09-18T13:28:51.026Z,14.28
2022-09-18T13:31:35.315Z,14.25
2022-09-18T13:34:18.705Z,14.24
2022-09-18T13:37:06.630Z,14.24
2022-09-18T13:40:27.389Z,14.26
2022-09-18T13:43:15.381Z,14.32
2022-09-18T13:46:03.491Z,14.32
2022-09-18T13:48:49.819Z,14.30
2022-09-18T13:51:36.525Z,14.21
2022-09-18T13:54:29.078Z,14.13
2022-09-18T13:57:18.918Z,14.04
2022-09-18T14:00:02.706Z,14.07
2022-09-18T14:03:16.534Z,14.18
2022-09-18T14:05:58.735Z,14.28
2022-09-18T14:08:40.530Z,14.28
2022-09-18T14:11:25.291Z,14.27
2022-09-18T14:14:12.044Z,14.24
2022-09-18T14:16:57.079Z,14.19
2022-09-18T14:19:45.313Z,14.12
2022-09-18T14:22:40.679Z,14.05
2022-09-18T14:25:54.874Z,13.97
2022-09-18T14:28:38.101Z,13.91
2022-09-18T14:31:28.869Z,13.97
2022-09-18T14:34:37.630Z,14.04
2022-09-18T14:37:35.400Z,14.15
2022-09-18T14:40:27.473Z,14.29
2022-09-18T14:43:17.421Z,14.37
2022-09-18T14:45:59.592Z,14.44
2022-09-18T14:48:41.726Z,14.45
2022-09-18T14:51:28.544Z,14.51
2022-09-18T14:54:22.108Z,14.60
2022-09-18T14:57:04.618Z,14.61
2022-09-18T14:59:53.279Z,14.61
2022-09-18T15:02:37.118Z,14.60
2022-09-18T15:05:21.369Z,14.61
2022-09-18T15:08:16.061Z,14.59
2022-09-18T15:10:59.306Z,14.52
2022-09-18T15:13:42.417Z,14.46
2022-09-18T15:16:33.267Z,14.44
2022-09-18T15:19:18.091Z,14.39
2022-09-18T15:22:01.010Z,14.37
2022-09-18T15:24:42.765Z,14.36
2022-09-18T15:27:25.321Z,14.28
2022-09-18T15:30:20.333Z,14.20
2022-09-18T15:33:05.728Z,14.14
2022-09-18T15:35:52.113Z,14.08
2022-09-18T15:38:43.349Z,14.05
2022-09-18T15:41:38.846Z,14.00
2022-09-18T15:44:49.825Z,13.89
2022-09-18T15:47:38.421Z,13.81
2022-09-18T15:50:20.581Z,13.71
2022-09-18T15:53:22.602Z,13.61
2022-09-18T15:56:07.619Z,13.50
2022-09-18T15:58:58.540Z,13.42
2022-09-18T16:01:46.975Z,13.32
2022-09-18T16:04:35.139Z,13.24
2022-09-18T16:07:20.629Z,13.13
2022-09-18T16:10:03.616Z,13.04
2022-09-18T16:12:45.716Z,12.95
2022-09-18T16:15:28.057Z,12.89
2022-09-18T16:18:16.266Z,12.82
2022-09-18T16:21:09.124Z,12.76
2022-09-18T16:23:59.404Z,12.70
2022-09-18T16:26:41.612Z,12.65
2022-09-18T16:29:23.918Z,12.61
2022-09-18T16:32:13.210Z,12.56
2022-09-18T16:34:55.901Z,12.50
2022-09-18T16:37:41.688Z,12.45
2022-09-18T16:40:27.628Z,12.39
2022-09-18T16:43:11.009Z,12.34
2022-09-18T16:45:55.773Z,12.27
2022-09-18T16:48:39.000Z,12.18
2022-09-18T16:51:22.226Z,12.12
2022-09-18T16:54:04.457Z,12.07
2022-09-18T16:56:51.815Z,11.99
2022-09-18T16:59:34.262Z,11.91
2022-09-18T17:02:22.424Z,11.82
2022-09-18T17:05:07.835Z,11.73
2022-09-18T17:07:49.781Z,11.64
2022-09-18T17:10:32.937Z,11.56
2022-09-18T17:13:14.901Z,11.49
2022-09-18T17:16:00.085Z,11.41
2022-09-18T17:18:44.173Z,11.34
2022-09-18T17:21:26.252Z,11.25
2022-09-18T17:24:10.070Z,11.18
2022-09-18T17:26:53.494Z,11.11
2022-09-18T17:29:35.900Z,11.04
2022-09-18T17:32:18.516Z,10.98
2022-09-18T17:35:01.698Z,10.92
2022-09-18T17:37:44.815Z,10.85
2022-09-18T17:40:27.507Z,10.80
2022-09-18T17:43:09.988Z,10.74
2022-09-18T17:46:04.130Z,10.68
2022-09-18T17:48:46.374Z,10.62
2022-09-18T17:51:29.375Z,10.57
2022-09-18T17:54:12.275Z,10.53
2022-09-18T17:56:55.954Z,10.51
2022-09-18T17:59:41.341Z,10.48
2022-09-18T18:02:23.473Z,10.44
2022-09-18T18:05:06.249Z,10.41
2022-09-18T18:07:49.578Z,10.37
2022-09-18T18:10:33.536Z,10.34
2022-09-18T18:13:22.704Z,10.30
2022-09-18T18:16:12.896Z,10.25
2022-09-18T18:19:06.852Z,10.21
2022-09-18T18:21:49.930Z,10.17
2022-09-18T18:24:33.252Z,10.12
2022-09-18T18:27:18.383Z,10.09
2022-09-18T18:30:01.992Z,10.05
2022-09-18T18:32:44.081Z,10.00
2022-09-18T18:35:26.219Z,9.96
2022-09-18T18:38:08.253Z,9.93
2022-09-18T18:40:53.083Z,9.88
2022-09-18T18:43:39.934Z,9.83
2022-09-18T18:46:25.257Z,9.80
2022-09-18T18:49:12.177Z,9.77
2022-09-18T18:51:54.591Z,9.73
2022-09-18T18:54:36.691Z,9.69
2022-09-18T18:57:18.896Z,9.66
2022-09-18T19:00:01.510Z,9.62
2022-09-18T19:02:44.631Z,9.57
2022-09-18T19:05:30.623Z,9.53
2022-09-18T19:08:14.483Z,9.48
2022-09-18T19:10:58.100Z,9.43
2022-09-18T19:13:45.321Z,9.37
2022-09-18T19:16:29.723Z,9.33
2022-09-18T19:19:16.426Z,9.30
2022-09-18T19:21:59.934Z,9.25
2022-09-18T19:24:44.739Z,9.21
2022-09-18T19:27:28.498Z,9.16
2022-09-18T19:30:10.620Z,9.12
2022-09-18T19:32:56.615Z,9.07
2022-09-18T19:35:38.407Z,9.03
2022-09-18T19:38:21.428Z,8.99
2022-09-18T19:41:20.631Z,8.95
2022-09-18T19:44:36.595Z,8.92
2022-09-18T19:47:37.402Z,8.88
2022-09-18T19:50:23.733Z,8.84
2022-09-18T19:53:06.488Z,8.80
2022-09-18T19:56:27.804Z,8.75
2022-09-18T19:59:16.866Z,8.68
2022-09-18T20:02:00.651Z,8.64
2022-09-18T20:04:42.497Z,8.60
2022-09-18T20:07:24.400Z,8.57
2022-09-18T20:10:12.696Z,8.53
2022-09-18T20:12:54.943Z,8.49
2022-09-18T20:15:36.736Z,8.45
2022-09-18T20:18:18.529Z,8.41
2022-09-18T20:21:06.147Z,8.36
2022-09-18T20:23:48.467Z,8.33
2022-09-18T20:26:30.333Z,8.30
2022-09-18T20:29:16.167Z,8.29
2022-09-18T20:31:58.355Z,8.27
2022-09-18T20:34:42.838Z,8.25
2022-09-18T20:37:33.102Z,8.23
2022-09-18T20:40:15.039Z,8.20
2022-09-18T20:42:56.892Z,8.20
2022-09-18T20:45:38.787Z,8.18
2022-09-18T20:48:25.291Z,8.16
2022-09-18T20:51:12.618Z,8.15
2022-09-18T20:53:57.389Z,8.12
2022-09-18T20:56:44.787Z,8.08
2022-09-18T20:59:27.517Z,8.05
2022-09-18T21:02:09.756Z,8.02
2022-09-18T21:04:52.538Z,8.00
2022-09-18T21:07:34.844Z,7.98
2022-09-18T21:10:16.637Z,7.96
2022-09-18T21:12:59.046Z,7.94
2022-09-18T21:15:47.415Z,7.91
2022-09-18T21:18:29.492Z,7.91
2022-09-18T21:21:12.400Z,7.89
2022-09-18T21:24:02.067Z,7.86
2022-09-18T21:26:46.778Z,7.84
2022-09-18T21:29:30.091Z,7.81
2022-09-18T21:32:12.489Z,7.77
2022-09-18T21:34:54.896Z,7.75
2022-09-18T21:37:36.690Z,7.72
2022-09-18T21:40:18.630Z,7.71
2022-09-18T21:43:00.481Z,7.69
2022-09-18T21:45:42.275Z,7.66
2022-09-18T21:48:24.071Z,7.64
2022-09-18T21:51:09.138Z,7.62
2022-09-18T21:53:51.137Z,7.59
2022-09-18T21:56:33.852Z,7.59
2022-09-18T21:59:15.645Z,7.56
2022-09-18T22:01:58.108Z,7.54
2022-09-18T22:04:42.201Z,7.53
2022-09-18T22:07:24.712Z,7.52
2022-09-18T22:10:07.529Z,7.49
2022-09-18T22:12:49.526Z,7.46
2022-09-18T22:15:32.448Z,7.43
2022-09-18T22:18:14.240Z,7.41
2022-09-18T22:20:57.365Z,7.38
2022-09-18T22:23:39.160Z,7.37
2022-09-18T22:26:25.356Z,7.36
2022-09-18T22:29:13.804Z,7.34
2022-09-18T22:31:56.315Z,7.33
2022-09-18T22:34:38.213Z,7.31
2022-09-18T22:37:20.311Z,7.29
2022-09-18T22:40:02.458Z,7.28
2022-09-18T22:42:44.908Z,7.27
2022-09-18T22:45:26.715Z,7.25
2022-09-18T22:48:08.715Z,7.24
2022-09-18T22:50:51.119Z,7.23
2022-09-18T22:53:33.938Z,7.21
2022-09-18T22:56:17.268Z,7.20
2022-09-18T22:59:02.337Z,7.20
2022-09-18T23:01:49.088Z,7.19
2022-09-18T23:04:33.795Z,7.17
2022-09-18T23:07:15.604Z,7.16
2022-09-18T23:09:57.395Z,7.15
2022-09-18T23:12:39.191Z,7.15
2022-09-18T23:15:20.983Z,7.16
2022-09-18T23:18:02.776Z,7.15
2022-09-18T23:20:44.568Z,7.15
2022-09-18T23:23:26.363Z,7.14
2022-09-18T23:26:19.726Z,7.14
2022-09-18T23:29:04.386Z,7.13
2022-09-18T23:31:50.546Z,7.12
2022-09-18T23:34:33.856Z,7.10
2022-09-18T23:37:15.585Z,7.08
2022-09-18T23:39:57.452Z,7.06
2022-09-18T23:42:39.906Z,7.04
2022-09-18T23:45:22.316Z,7.03
2022-09-18T23:48:04.324Z,7.01
2022-09-18T23:50:46.106Z,7.00
2022-09-18T23:53:31.607Z,6.98
2022-09-18T23:56:16.555Z,6.95
2022-09-18T23:59:01.725Z,6.93
